Time;durP1;ratioP1;P1;durP2;ratioP2;P2;SDS_P1;SDS_P2;PMS_P1;PMS_P2;Temp;Humidity;BMP_temperature;BMP_pressure;BME280_temperature;BME280_humidity;BME280_pressure;Samples;Min_cycle;Max_cycle;Signal;HPM_P1;HPM_P2
2021/08/12 05:01:54;;;;;;;14.45;7.50;;;;;;;13.86;73.13;100685.81;4986007;28;106423;-65
2021/08/12 05:04:19;;;;;;;12.27;7.45;;;;;;;14.00;73.16;100682.31;4988196;28;107167;-72
2021/08/12 05:06:44;;;;;;;12.85;7.38;;;;;;;14.16;73.69;100676.00;4985550;28;106173;-68
2021/08/12 05:09:10;;;;;;;8.98;7.20;;;;;;;14.35;73.82;100681.81;4984949;28;113676;-67
2021/08/12 05:11:35;;;;;;;11.80;7.15;;;;;;;14.56;73.86;100679.25;4984936;28;105994;-67
2021/08/12 05:14:00;;;;;;;16.00;7.68;;;;;;;14.79;73.78;100678.38;4986378;28;105960;-66
2021/08/12 05:16:26;;;;;;;12.57;6.80;;;;;;;15.04;73.96;100680.75;4985552;28;105954;-66
2021/08/12 05:18:51;;;;;;;9.45;6.10;;;;;;;15.24;73.40;100686.34;4984601;28;105922;-66
2021/08/12 05:21:16;;;;;;;12.57;7.47;;;;;;;15.43;73.17;100686.75;4985268;28;106645;-67
2021/08/12 05:23:42;;;;;;;9.55;6.03;;;;;;;15.61;72.79;100689.00;4985192;28;106002;-64
2021/08/12 05:26:07;;;;;;;10.10;6.55;;;;;;;15.80;72.96;100696.47;4985755;28;106210;-66
2021/08/12 05:28:33;;;;;;;8.25;5.93;;;;;;;15.97;72.35;100690.81;4985046;28;106134;-67
2021/08/12 05:31:01;;;;;;;9.93;5.85;;;;;;;16.15;71.98;100693.03;4985023;28;106496;-67
2021/08/12 05:33:26;;;;;;;12.07;5.85;;;;;;;16.32;71.93;100701.63;4985429;28;105855;-67
2021/08/12 05:35:52;;;;;;;11.02;5.10;;;;;;;16.49;71.45;100708.38;4985394;28;105947;-67
2021/08/12 05:38:17;;;;;;;8.77;6.18;;;;;;;16.68;71.25;100714.09;4984911;28;107164;-67
2021/08/12 05:40:42;;;;;;;10.57;6.35;;;;;;;16.82;70.75;100704.22;4984863;28;106049;-71
2021/08/12 05:43:08;;;;;;;8.75;5.80;;;;;;;16.96;70.35;100710.53;4985034;28;105782;-75
2021/08/12 05:45:33;;;;;;;10.65;5.47;;;;;;;17.12;70.84;100707.50;4984869;28;106205;-76
2021/08/12 05:47:58;;;;;;;8.85;5.88;;;;;;;17.34;70.25;100726.22;4984879;28;105807;-78
2021/08/12 05:50:24;;;;;;;16.83;6.82;;;;;;;17.47;69.40;100718.19;4984754;28;106002;-71
2021/08/12 05:52:49;;;;;;;9.95;5.57;;;;;;;17.60;69.06;100725.47;4984870;28;105895;-66
2021/08/12 05:55:14;;;;;;;10.02;6.05;;;;;;;17.77;68.84;100720.56;4984664;28;106159;-77
2021/08/12 05:57:40;;;;;;;8.38;5.28;;;;;;;17.93;68.52;100714.78;4984518;28;109394;-77
2021/08/12 06:00:08;;;;;;;11.15;5.55;;;;;;;18.09;68.09;100718.09;4982988;28;106029;-76
2021/08/12 06:02:33;;;;;;;9.98;5.25;;;;;;;18.28;67.74;100724.53;4985058;28;106220;-70
2021/08/12 06:04:58;;;;;;;10.30;5.40;;;;;;;18.45;67.45;100716.84;4983812;28;106243;-68
2021/08/12 06:07:24;;;;;;;11.85;6.22;;;;;;;18.65;67.16;100722.22;4984073;28;106069;-69
2021/08/12 06:09:49;;;;;;;8.95;5.03;;;;;;;18.84;66.65;100720.50;4984412;28;106178;-71
2021/08/12 06:12:14;;;;;;;12.20;5.10;;;;;;;19.04;66.30;100717.78;4976665;28;105677;-71
2021/08/12 06:14:40;;;;;;;10.30;5.88;;;;;;;19.23;65.80;100715.19;4970734;28;106155;-69
2021/08/12 06:17:05;;;;;;;9.68;5.20;;;;;;;19.40;65.29;100712.84;4966308;28;106047;-75
2021/08/12 06:19:30;;;;;;;9.73;5.40;;;;;;;19.56;64.75;100709.63;4961666;28;105917;-75
2021/08/12 06:21:56;;;;;;;9.93;4.47;;;;;;;19.75;64.11;100718.66;4971523;28;106040;-72
2021/08/12 06:24:21;;;;;;;11.05;5.07;;;;;;;19.92;63.48;100713.56;4971330;28;106158;-71
2021/08/12 06:26:46;;;;;;;9.57;4.93;;;;;;;20.08;63.00;100723.03;4970559;28;105929;-68
2021/08/12 06:29:12;;;;;;;7.18;4.85;;;;;;;20.25;62.53;100726.00;4971065;28;105892;-73
2021/08/12 06:31:38;;;;;;;7.82;5.00;;;;;;;20.46;61.95;100723.94;4971385;28;105775;-69
2021/08/12 06:34:04;;;;;;;11.77;4.75;;;;;;;20.69;61.56;100727.91;4970597;28;105763;-68
2021/08/12 06:36:31;;;;;;;9.10;4.90;;;;;;;20.87;60.88;100725.22;4970344;28;106296;-70
2021/08/12 06:38:59;;;;;;;8.13;4.82;;;;;;;21.07;60.27;100721.44;4970719;28;106092;-69
2021/08/12 06:41:25;;;;;;;10.20;4.82;;;;;;;21.27;59.73;100724.72;4971299;28;106045;-71
2021/08/12 06:43:50;;;;;;;13.02;4.85;;;;;;;21.51;59.23;100730.25;4970864;28;106287;-69
2021/08/12 06:46:16;;;;;;;11.63;4.60;;;;;;;21.66;58.45;100732.56;4970474;28;107680;-70
2021/08/12 06:48:41;;;;;;;10.88;4.60;;;;;;;21.83;58.02;100729.19;4970457;28;105822;-70
2021/08/12 06:51:06;;;;;;;8.25;4.75;;;;;;;22.03;57.32;100732.41;4971040;28;105905;-69
2021/08/12 06:53:32;;;;;;;8.30;4.32;;;;;;;22.08;56.05;100740.69;4970799;28;105792;-68
2021/08/12 06:55:57;;;;;;;6.22;3.83;;;;;;;22.13;55.75;100738.13;4970504;28;106152;-70
2021/08/12 06:58:22;;;;;;;7.28;4.07;;;;;;;22.31;55.39;100742.59;4970058;28;106145;-70
2021/08/12 07:00:48;;;;;;;6.60;4.50;;;;;;;22.36;54.58;100746.53;4964049;28;107778;-68
2021/08/12 07:03:13;;;;;;;5.68;3.72;;;;;;;22.40;53.82;100747.72;4970404;28;106201;-70
2021/08/12 07:05:38;;;;;;;8.52;3.67;;;;;;;22.42;53.45;100746.41;4970093;28;106637;-70
2021/08/12 07:08:05;;;;;;;7.03;4.05;;;;;;;22.59;53.13;100746.53;4969575;28;106503;-73
2021/08/12 07:10:31;;;;;;;9.30;3.80;;;;;;;22.62;52.15;100739.81;4971111;28;105846;-68
2021/08/12 07:12:56;;;;;;;5.95;3.63;;;;;;;22.68;51.96;100741.59;4970359;28;106160;-69
2021/08/12 07:15:22;;;;;;;6.07;3.70;;;;;;;22.88;51.61;100738.50;4969857;28;107082;-68
2021/08/12 07:17:47;;;;;;;7.72;3.53;;;;;;;23.07;51.05;100733.69;4969653;28;106045;-70
2021/08/12 07:20:13;;;;;;;7.88;3.92;;;;;;;23.30;50.46;100729.31;4970369;28;105984;-69
2021/08/12 07:22:38;;;;;;;5.78;3.63;;;;;;;23.56;49.63;100733.31;4969902;28;106262;-70
2021/08/12 07:25:04;;;;;;;6.80;3.83;;;;;;;23.76;49.35;100738.31;4968921;28;106116;-77
2021/08/12 07:27:30;;;;;;;4.85;3.10;;;;;;;23.98;48.88;100741.19;4970063;28;105965;-73
2021/08/12 07:29:55;;;;;;;5.47;3.28;;;;;;;23.96;47.80;100746.06;4970943;28;106089;-76
2021/08/12 07:32:20;;;;;;;5.45;3.20;;;;;;;23.95;47.48;100752.56;4970774;28;105813;-73
2021/08/12 07:34:46;;;;;;;6.10;3.08;;;;;;;24.11;47.22;100755.53;4969412;28;106035;-70
2021/08/12 07:37:11;;;;;;;7.30;2.90;;;;;;;24.25;46.77;100751.41;4969374;28;105849;-74
2021/08/12 07:39:37;;;;;;;5.72;3.30;;;;;;;24.29;46.10;100754.44;4970153;28;105842;-72
2021/08/12 07:42:02;;;;;;;5.63;3.42;;;;;;;24.48;45.96;100757.72;4969482;28;106170;-70
2021/08/12 07:44:28;;;;;;;5.60;2.83;;;;;;;24.53;45.12;100757.00;4969204;28;106361;-72
2021/08/12 07:46:53;;;;;;;8.18;3.10;;;;;;;24.55;44.38;100755.69;4969409;28;106108;-69
2021/08/12 07:49:18;;;;;;;8.68;3.00;;;;;;;24.55;43.77;100758.41;4970356;28;106240;-71
2021/08/12 07:51:44;;;;;;;5.00;3.10;;;;;;;24.67;43.16;100759.16;4968304;28;106738;-72
2021/08/12 07:54:09;;;;;;;8.43;3.42;;;;;;;24.54;42.62;100759.47;4969430;28;105858;-73
2021/08/12 07:56:35;;;;;;;6.18;3.10;;;;;;;24.60;43.24;100753.00;4969438;28;106023;-72
2021/08/12 07:59:00;;;;;;;8.70;2.92;;;;;;;24.65;42.52;100755.03;4970446;28;105871;-71
2021/08/12 08:01:25;;;;;;;5.22;3.15;;;;;;;24.60;42.18;100749.47;4968848;28;106171;-72
2021/08/12 08:03:51;;;;;;;5.55;2.70;;;;;;;24.69;42.43;100752.63;4968832;28;106432;-71
2021/08/12 08:06:17;;;;;;;5.18;3.10;;;;;;;24.92;41.84;100751.56;4968929;28;106208;-71
2021/08/12 08:08:42;;;;;;;6.00;3.08;;;;;;;25.10;41.20;100755.91;4969354;28;105933;-70
2021/08/12 08:11:08;;;;;;;8.40;2.95;;;;;;;25.26;40.98;100760.47;4969159;28;106152;-74
2021/08/12 08:13:33;;;;;;;7.18;3.05;;;;;;;25.53;41.04;100756.97;4968560;28;105946;-71
2021/08/12 08:15:59;;;;;;;5.88;2.85;;;;;;;25.88;40.31;100754.88;4968630;28;106017;-74
2021/08/12 08:18:26;;;;;;;5.95;2.70;;;;;;;26.24;39.88;100766.09;4960597;28;105966;-71
2021/08/12 08:20:51;;;;;;;5.22;2.75;;;;;;;26.60;39.40;100766.34;4969466;28;106232;-72
2021/08/12 08:23:17;;;;;;;4.72;2.63;;;;;;;26.78;37.78;100765.13;4968902;28;105905;-68
2021/08/12 08:25:42;;;;;;;8.73;2.72;;;;;;;26.65;37.19;100758.19;4968473;28;106014;-76
2021/08/12 08:28:08;;;;;;;7.93;2.55;;;;;;;26.61;37.29;100768.81;4958850;28;106100;-69
2021/08/12 08:30:35;;;;;;;5.05;2.30;;;;;;;26.63;36.81;100769.38;4957215;28;106274;-71
2021/08/12 08:33:01;;;;;;;3.70;2.20;;;;;;;26.85;36.56;100773.91;4949129;28;106626;-68
2021/08/12 08:35:28;;;;;;;4.47;2.50;;;;;;;27.01;36.34;100777.53;4956324;28;105995;-68
2021/08/12 08:37:53;;;;;;;5.97;2.67;;;;;;;27.13;35.80;100774.59;4968223;28;106097;-69
2021/08/12 08:40:19;;;;;;;4.28;2.45;;;;;;;27.29;35.76;100768.09;4969199;28;106362;-71
2021/08/12 08:42:48;;;;;;;3.78;2.45;;;;;;;27.74;35.54;100767.69;4968996;28;106527;-70
2021/08/12 08:45:20;;;;;;;4.40;2.35;;;;;;;28.22;34.66;100770.22;4968837;28;106041;-68
2021/08/12 08:47:48;;;;;;;4.60;2.72;;;;;;;28.37;34.28;100768.25;4969637;28;106047;-69
2021/08/12 08:50:18;;;;;;;3.88;2.20;;;;;;;28.45;33.96;100771.56;4969057;28;106187;-72
2021/08/12 08:52:45;;;;;;;4.22;2.58;;;;;;;28.45;33.53;100766.09;4968306;28;106420;-72
2021/08/12 08:55:16;;;;;;;4.32;2.50;;;;;;;28.62;33.33;100761.09;4968900;28;106025;-74
2021/08/12 08:57:43;;;;;;;4.75;2.58;;;;;;;28.91;33.05;100762.41;4969719;28;105871;-71
2021/08/12 09:00:08;;;;;;;3.70;2.25;;;;;;;29.30;32.70;100765.28;4968079;28;106406;-68
2021/08/12 09:02:34;;;;;;;6.05;2.42;;;;;;;30.02;31.66;100770.34;4968687;28;106128;-68
2021/08/12 09:04:59;;;;;;;4.30;2.38;;;;;;;30.90;30.31;100766.75;4968082;28;105986;-67
2021/08/12 09:07:25;;;;;;;5.63;2.50;;;;;;;32.67;28.52;100764.66;4968578;28;106560;-70
2021/08/12 09:09:50;;;;;;;7.22;2.50;;;;;;;34.63;25.87;100770.41;4968133;28;106362;-68
2021/08/12 09:12:15;;;;;;;3.40;2.20;;;;;;;35.97;23.95;100775.53;4968432;28;106462;-66
2021/08/12 09:14:42;;;;;;;4.70;2.35;;;;;;;36.71;22.54;100767.16;4967552;28;105822;-71
2021/08/12 09:17:19;;;;;;;3.80;2.47;;;;;;;36.24;22.18;100767.97;4957021;28;105835;-74
2021/08/12 09:20:16;;;;;;;3.55;2.20;;;;;;;35.74;22.71;100770.13;4951457;28;106328;-70
2021/08/12 09:23:00;;;;;;;3.47;2.30;;;;;;;35.65;22.62;100772.13;4947939;28;106046;-74
2021/08/12 09:25:28;;;;;;;4.75;2.13;;;;;;;35.73;22.85;100768.53;4956726;28;105918;-73
2021/08/12 09:28:09;;;;;;;5.57;2.22;;;;;;;36.22;22.29;100759.16;4957867;28;106685;-68
2021/08/12 09:30:35;;;;;;;5.30;2.47;;;;;;;36.55;21.59;100755.81;4947963;28;106224;-71
2021/08/12 09:33:00;;;;;;;6.72;2.50;;;;;;;36.36;21.78;100756.19;4948067;28;106590;-69
2021/08/12 09:35:27;;;;;;;3.13;2.20;;;;;;;36.17;22.08;100756.56;4955137;28;105982;-72
2021/08/12 09:38:06;;;;;;;4.18;2.60;;;;;;;36.14;21.43;100757.22;4968377;28;106393;-69
2021/08/12 09:40:31;;;;;;;7.72;2.33;;;;;;;36.06;21.95;100756.09;4965700;28;106188;-69
2021/08/12 09:43:00;;;;;;;4.25;2.20;;;;;;;36.31;21.83;100751.63;4967746;28;105857;-70
2021/08/12 09:45:26;;;;;;;;;;;;;;;36.46;21.66;100752.25;4967643;28;106000;-69
2021/08/12 09:47:53;;;;;;;4.03;2.33;;;;;;;35.82;22.37;100760.22;4970806;28;105890;-70
2021/08/12 09:50:34;;;;;;;5.85;2.60;;;;;;;35.27;22.71;100764.41;4970467;28;106155;-71
2021/08/12 09:53:01;;;;;;;4.22;2.28;;;;;;;35.14;23.10;100759.81;4971117;28;107303;-71
2021/08/12 09:55:26;;;;;;;5.72;2.53;;;;;;;34.87;22.96;100761.72;4971167;28;106467;-70
2021/08/12 09:58:06;;;;;;;5.82;2.47;;;;;;;34.62;23.25;100760.47;4964518;28;106478;-68
2021/08/12 10:00:41;;;;;;;4.65;2.40;;;;;;;34.33;23.17;100759.84;4954194;28;105912;-70
2021/08/12 10:03:26;;;;;;;4.60;2.60;;;;;;;33.89;23.11;100754.03;4951682;28;106034;-73
2021/08/12 10:05:54;;;;;;;5.22;2.40;;;;;;;33.82;23.83;100758.34;4961688;28;105975;-69
2021/08/12 10:08:39;;;;;;;3.58;2.20;;;;;;;34.15;23.29;100750.63;4971249;28;106345;-67
2021/08/12 10:11:38;;;;;;;3.67;2.10;;;;;;;34.32;22.93;100752.69;4970733;28;106199;-67
2021/08/12 10:14:04;;;;;;;4.03;2.15;;;;;;;34.69;23.31;100755.28;4968508;28;107774;-67
2021/08/12 10:16:32;;;;;;;4.40;2.30;;;;;;;35.18;22.65;100755.28;4969976;28;106448;-70
2021/08/12 10:18:59;;;;;;;3.97;2.22;;;;;;;35.45;22.20;100748.66;4970521;28;105898;-67
2021/08/12 10:21:25;;;;;;;7.93;3.83;;;;;;;35.43;22.20;100756.44;4970507;28;106120;-71
2021/08/12 10:24:00;;;;;;;5.80;2.53;;;;;;;35.26;22.22;100746.16;4970288;28;106007;-72
2021/08/12 10:26:27;;;;;;;4.13;2.30;;;;;;;34.98;22.33;100754.75;4970200;28;106080;-67
2021/08/12 10:29:02;;;;;;;4.82;2.15;;;;;;;34.66;22.64;100739.31;4970984;28;105996;-69
2021/08/12 10:31:29;;;;;;;7.05;2.63;;;;;;;34.26;22.67;100745.63;4970452;28;106099;-68
2021/08/12 10:33:56;;;;;;;5.78;2.88;;;;;;;33.93;23.07;100742.34;4969572;28;105938;-66
2021/08/12 10:36:22;;;;;;;4.15;2.45;;;;;;;33.43;23.72;100732.19;4960591;28;106212;-67
2021/08/12 10:38:48;;;;;;;3.92;2.60;;;;;;;32.98;23.44;100733.69;4960586;28;106183;-77
2021/08/12 10:41:16;;;;;;;3.65;2.40;;;;;;;32.59;24.22;100736.94;4959394;28;106020;-69
2021/08/12 10:43:42;;;;;;;3.58;2.25;;;;;;;32.51;24.46;100735.72;4958840;28;106492;-65
2021/08/12 10:46:07;;;;;;;6.10;2.20;;;;;;;32.60;24.32;100730.31;4959887;28;106206;-69
2021/08/12 10:48:33;;;;;;;5.90;2.85;;;;;;;32.47;24.73;100735.50;4953675;28;106001;-67
2021/08/12 10:51:02;;;;;;;6.18;2.30;;;;;;;32.23;24.61;100731.00;4951015;28;106213;-69
2021/08/12 10:53:27;;;;;;;5.95;2.40;;;;;;;31.86;24.67;100727.19;4962277;28;106900;-68
2021/08/12 10:56:09;;;;;;;3.83;2.67;;;;;;;31.48;25.29;100731.88;4958915;28;105973;-67
2021/08/12 10:58:37;;;;;;;3.28;2.33;;;;;;;31.15;25.14;100724.38;4964170;28;106061;-73
2021/08/12 11:01:06;;;;;;;4.97;2.60;;;;;;;30.95;25.49;100730.94;4958176;28;105937;-68
2021/08/12 11:03:31;;;;;;;4.35;2.40;;;;;;;31.02;25.40;100728.66;4953935;28;106672;-67
2021/08/12 11:06:08;;;;;;;6.45;2.55;;;;;;;31.28;25.67;100733.03;4955686;28;106125;-70
2021/08/12 11:08:52;;;;;;;4.10;2.53;;;;;;;31.42;25.47;100733.91;4959555;28;106545;-69
2021/08/12 11:11:20;;;;;;;6.10;3.00;;;;;;;31.43;25.48;100729.25;4958360;28;106004;-70
2021/08/12 11:13:46;;;;;;;5.93;2.53;;;;;;;31.38;25.50;100730.94;4960228;28;106131;-68
2021/08/12 11:16:11;;;;;;;6.78;2.22;;;;;;;31.41;25.58;100725.94;4959085;28;106031;-71
2021/08/12 11:18:57;;;;;;;4.22;2.30;;;;;;;31.46;25.46;100731.38;4955813;28;106045;-68
2021/08/12 11:21:31;;;;;;;5.65;2.17;;;;;;;31.46;25.29;100723.94;4959440;28;105999;-66
2021/08/12 11:24:06;;;;;;;3.40;2.28;;;;;;;31.54;25.13;100727.97;4958449;28;106126;-66
2021/08/12 11:26:41;;;;;;;3.13;2.33;;;;;;;31.56;25.16;100726.53;4957771;28;106277;-67
2021/08/12 11:29:29;;;;;;;6.40;2.53;;;;;;;31.33;25.13;100724.66;4959036;28;106466;-66
2021/08/12 11:32:04;;;;;;;4.10;2.20;;;;;;;31.01;25.07;100726.19;4958733;28;105779;-67
2021/08/12 11:34:40;;;;;;;7.25;2.25;;;;;;;30.86;25.62;100721.69;4964149;28;106684;-66
2021/08/12 11:37:08;;;;;;;8.77;2.60;;;;;;;31.34;25.45;100716.16;4959623;28;106197;-70
2021/08/12 11:40:04;;;;;;;4.20;2.25;;;;;;;31.65;25.19;100714.88;4959248;28;106104;-68
2021/08/12 11:42:44;;;;;;;6.63;2.22;;;;;;;32.12;25.02;100717.66;4956734;28;106298;-66
2021/08/12 11:45:09;;;;;;;;;;;;;;;32.08;24.96;100711.13;4959625;28;106002;-69
2021/08/12 11:47:36;;;;;;;8.18;2.80;;;;;;;32.19;24.99;100707.09;4957446;28;106023;-70
2021/08/12 11:50:04;;;;;;;3.33;2.38;;;;;;;32.24;24.72;100715.28;4958785;28;105978;-68
2021/08/12 11:52:33;;;;;;;6.30;2.90;;;;;;;32.63;24.04;100721.41;4958117;28;106216;-68
2021/08/12 11:55:01;;;;;;;8.75;3.03;;;;;;;33.06;23.85;100721.09;4959653;28;106108;-68
2021/08/12 11:57:44;;;;;;;4.57;2.50;;;;;;;33.16;23.89;100715.38;4958991;28;106204;-66
2021/08/12 12:00:20;;;;;;;4.47;2.80;;;;;;;33.11;23.40;100714.66;4959619;28;106139;-69
2021/08/12 12:02:56;;;;;;;4.40;2.22;;;;;;;32.81;23.69;100714.22;4958832;28;106252;-67
2021/08/12 12:05:24;;;;;;;7.10;2.60;;;;;;;32.61;24.20;100713.44;4958517;28;106160;-67
2021/08/12 12:07:50;;;;;;;4.13;2.25;;;;;;;32.46;24.21;100711.00;4957588;28;106325;-67
2021/08/12 12:10:45;;;;;;;4.45;2.50;;;;;;;32.35;24.31;100716.69;4959676;28;106346;-66
2021/08/12 12:13:21;;;;;;;4.70;2.53;;;;;;;32.28;24.84;100710.78;4959240;28;105822;-68
2021/08/12 12:15:50;;;;;;;9.32;3.08;;;;;;;32.14;24.58;100716.25;4951450;28;106122;-66
2021/08/12 12:18:30;;;;;;;;;;;;;;;32.02;24.72;100716.72;4958081;28;106155;-65
2021/08/12 12:21:02;;;;;;;5.50;2.30;;;;;;;32.09;24.85;100710.81;4949955;28;106245;-66
2021/08/12 12:23:28;;;;;;;5.07;2.40;;;;;;;32.28;24.69;100709.97;4947908;28;106111;-68
2021/08/12 12:25:53;;;;;;;3.63;2.42;;;;;;;32.37;24.50;100708.97;4948997;28;106084;-69
2021/08/12 12:28:19;;;;;;;7.13;2.72;;;;;;;32.22;24.46;100706.50;4957257;28;106003;-70
2021/08/12 12:30:45;;;;;;;4.22;2.65;;;;;;;31.89;24.45;100706.47;4969588;28;106016;-68
2021/08/12 12:33:16;;;;;;;5.80;2.42;;;;;;;31.55;24.88;100702.88;4953640;28;106233;-71
2021/08/12 12:35:43;;;;;;;6.18;2.30;;;;;;;31.40;25.03;100705.88;4958298;28;106882;-71
2021/08/12 12:38:16;;;;;;;4.07;2.42;;;;;;;30.85;25.41;100698.88;4968275;28;106061;-70
2021/08/12 12:40:43;;;;;;;4.38;2.40;;;;;;;30.55;25.84;100689.91;4962317;28;105938;-68
2021/08/12 12:43:09;;;;;;;10.32;2.67;;;;;;;30.71;25.68;100692.44;4956797;28;105869;-70
2021/08/12 12:45:51;;;;;;;4.10;2.35;;;;;;;30.75;25.59;100698.19;4948941;28;106051;-68
2021/08/12 12:48:26;;;;;;;5.00;2.20;;;;;;;30.71;25.68;100693.28;4948868;28;106002;-71
2021/08/12 12:50:51;;;;;;;4.40;2.35;;;;;;;30.86;25.56;100699.69;4968259;28;105919;-69
2021/08/12 12:53:35;;;;;;;11.57;2.67;;;;;;;30.99;25.23;100689.88;4968610;28;105936;-68
2021/08/12 12:56:02;;;;;;;4.50;2.60;;;;;;;30.74;25.36;100685.56;4968119;28;106478;-68
2021/08/12 12:58:37;;;;;;;4.63;2.88;;;;;;;30.78;25.59;100692.91;4966822;28;107071;-69
2021/08/12 13:01:06;;;;;;;3.47;2.58;;;;;;;31.09;25.58;100689.78;4968445;28;106125;-70
2021/08/12 13:03:39;;;;;;;4.47;2.67;;;;;;;31.37;24.88;100688.00;4968232;28;106160;-70
2021/08/12 13:06:08;;;;;;;4.45;2.20;;;;;;;31.64;24.73;100683.75;4968084;28;106664;-69
2021/08/12 13:08:50;;;;;;;4.47;2.30;;;;;;;31.66;24.91;100677.97;4968031;28;106069;-71
2021/08/12 13:11:26;;;;;;;3.38;2.30;;;;;;;31.79;24.75;100681.88;4950807;28;106827;-67
2021/08/12 13:13:52;;;;;;;3.10;2.35;;;;;;;31.80;24.50;100672.50;4969600;28;106005;-67
2021/08/12 13:16:19;;;;;;;4.78;2.45;;;;;;;31.78;25.07;100678.31;4982944;28;106669;-67
2021/08/12 13:19:00;;;;;;;4.32;2.70;;;;;;;31.60;24.48;100677.22;4974593;28;105936;-68
2021/08/12 13:21:31;;;;;;;7.28;2.85;;;;;;;31.32;24.78;100682.56;4974328;28;106100;-68
2021/08/12 13:24:00;;;;;;;3.72;2.40;;;;;;;30.91;25.27;100677.63;4987628;28;106210;-67
2021/08/12 13:26:27;;;;;;;4.15;2.40;;;;;;;30.60;25.39;100675.25;4970638;28;106046;-68
2021/08/12 13:29:06;;;;;;;4.47;2.30;;;;;;;30.31;25.96;100667.06;4980932;28;105984;-69
2021/08/12 13:31:47;;;;;;;3.85;2.70;;;;;;;30.29;26.05;100664.59;4986270;28;106386;-68
2021/08/12 13:34:13;;;;;;;5.63;3.28;;;;;;;30.24;26.19;100672.91;4960614;28;106343;-68
2021/08/12 13:36:39;;;;;;;9.65;2.80;;;;;;;29.87;26.48;100668.88;4983283;28;106158;-69
2021/08/12 13:39:05;;;;;;;3.85;2.28;;;;;;;29.57;26.31;100665.25;4982157;28;105938;-67
2021/08/12 13:41:31;;;;;;;6.47;2.45;;;;;;;29.47;26.79;100665.31;4976724;28;106069;-68
2021/08/12 13:43:57;;;;;;;3.25;2.20;;;;;;;29.31;27.15;100659.94;4987533;28;106549;-67
2021/08/12 13:46:23;;;;;;;7.15;2.72;;;;;;;29.09;27.70;100664.97;4976390;28;106217;-66
2021/08/12 13:48:48;;;;;;;4.82;2.72;;;;;;;29.01;27.62;100658.19;4981945;28;106414;-67
2021/08/12 13:51:14;;;;;;;5.53;2.75;;;;;;;29.03;27.97;100662.28;4984046;28;105959;-67
2021/08/12 13:53:39;;;;;;;5.68;2.92;;;;;;;29.01;27.93;100661.72;4975048;28;106503;-66
2021/08/12 13:56:04;;;;;;;3.88;2.45;;;;;;;28.76;27.80;100659.13;4986609;28;106419;-69
2021/08/12 13:58:30;;;;;;;4.28;2.60;;;;;;;28.54;28.07;100661.09;4977202;28;106109;-67
2021/08/12 14:00:55;;;;;;;6.85;2.88;;;;;;;28.37;28.18;100655.13;4980877;28;106472;-67
2021/08/12 14:03:23;;;;;;;4.07;2.58;;;;;;;28.45;28.37;100657.28;4984471;28;106236;-66
2021/08/12 14:05:48;;;;;;;4.65;2.95;;;;;;;28.46;28.50;100642.50;4973585;28;106034;-66
2021/08/12 14:08:17;;;;;;;4.03;2.63;;;;;;;28.45;28.27;100645.53;4986236;28;106136;-75
2021/08/12 14:10:44;;;;;;;4.32;2.60;;;;;;;28.41;28.56;100650.72;4979695;28;106424;-73
2021/08/12 14:13:09;;;;;;;6.90;2.50;;;;;;;28.44;28.75;100654.84;4978422;28;106175;-72
2021/08/12 14:15:35;;;;;;;4.38;2.45;;;;;;;28.45;28.54;100653.75;4985879;28;106303;-72
2021/08/12 14:18:00;;;;;;;6.40;2.88;;;;;;;28.45;28.64;100657.28;4971976;28;107593;-74
2021/08/12 14:20:26;;;;;;;5.28;2.70;;;;;;;28.40;28.77;100653.75;4985201;28;105942;-75
2021/08/12 14:22:51;;;;;;;5.80;2.88;;;;;;;28.52;28.54;100652.31;4980095;28;106165;-74
2021/08/12 14:25:16;;;;;;;5.28;2.72;;;;;;;28.56;28.86;100646.31;4990611;28;106051;-74
2021/08/12 14:27:44;;;;;;;5.07;2.65;;;;;;;28.54;28.88;100652.88;4990640;28;106276;-74
2021/08/12 14:30:10;;;;;;;3.85;2.40;;;;;;;28.58;28.94;100641.34;4991473;28;105960;-75
2021/08/12 14:32:36;;;;;;;10.27;2.70;;;;;;;28.57;28.56;100636.97;4990145;28;106664;-74
2021/08/12 14:35:01;;;;;;;3.35;2.15;;;;;;;28.50;28.59;100642.72;4990085;28;106045;-75
2021/08/12 14:37:26;;;;;;;6.72;2.90;;;;;;;28.47;28.43;100637.81;4990149;28;106250;-74
2021/08/12 14:39:52;;;;;;;4.80;2.83;;;;;;;28.48;28.36;100642.22;4990987;28;106049;-74
2021/08/12 14:42:18;;;;;;;5.47;3.25;;;;;;;28.49;28.63;100635.63;4990382;28;106388;-73
2021/08/12 14:44:44;;;;;;;4.72;3.15;;;;;;;28.41;28.67;100634.28;4990059;28;106079;-73
2021/08/12 14:47:09;;;;;;;6.18;2.58;;;;;;;28.34;28.89;100640.06;4990090;28;105865;-69
2021/08/12 14:49:34;;;;;;;4.75;2.92;;;;;;;28.20;29.22;100641.75;4990468;28;105792;-73
2021/08/12 14:52:00;;;;;;;7.88;3.72;;;;;;;28.14;29.03;100635.44;4990062;28;105867;-72
2021/08/12 14:54:25;;;;;;;3.60;2.60;;;;;;;28.09;29.25;100642.84;4988672;28;106578;-68
2021/08/12 14:56:50;;;;;;;4.07;2.53;;;;;;;27.79;29.36;100644.50;4990515;28;106207;-69
2021/08/12 20:35:37;;;;;;;15.50;7.25;;;;;;;17.85;53.49;100631.41;4970900;27;106112;-67
2021/08/12 20:38:03;;;;;;;13.00;5.70;;;;;;;17.82;53.95;100617.53;4963572;28;106291;-67
2021/08/12 20:40:28;;;;;;;13.88;5.18;;;;;;;17.84;54.51;100620.84;4964045;28;106086;-68
